createdAt,value
2023-01-30T00:01:12.795Z,99612.00
2023-01-30T00:03:45.928Z,99614.00
2023-01-30T00:06:13.118Z,99614.00
2023-01-30T00:08:40.180Z,99615.00
2023-01-30T00:11:15.903Z,99590.00
2023-01-30T00:13:43.571Z,99591.00
2023-01-30T00:16:17.872Z,99606.00
2023-01-30T00:18:44.981Z,99613.00
2023-01-30T00:21:13.611Z,99585.00
2023-01-30T00:23:46.908Z,99602.00
2023-01-30T00:26:20.865Z,99603.00
2023-01-30T00:28:47.864Z,99593.00
2023-01-30T00:31:21.896Z,99592.00
2023-01-30T00:33:48.974Z,99577.00
2023-01-30T00:36:16.013Z,99599.00
2023-01-30T00:38:49.848Z,99591.00
2023-01-30T00:41:16.892Z,99578.00
2023-01-30T00:43:44.021Z,99563.00
2023-01-30T00:46:43.838Z,99593.00
2023-01-30T00:49:17.881Z,99568.00
2023-01-30T00:51:44.898Z,99589.00
2023-01-30T00:54:18.845Z,99585.00
2023-01-30T00:56:46.013Z,99594.00
2023-01-30T00:59:19.831Z,99586.00
2023-01-30T01:01:53.838Z,99581.00
2023-01-30T01:04:21.111Z,99551.00
2023-01-30T01:06:54.846Z,99579.00
2023-01-30T01:09:21.859Z,99580.00
2023-01-30T01:11:49.026Z,99585.00
2023-01-30T01:14:22.886Z,99551.00
2023-01-30T01:16:50.091Z,99580.00
2023-01-30T01:19:23.857Z,99582.00
2023-01-30T01:21:50.928Z,99575.00
2023-01-30T01:24:24.862Z,99588.00
2023-01-30T01:26:58.825Z,99570.00
2023-01-30T01:29:25.928Z,99580.00
2023-01-30T01:31:52.946Z,99568.00
2023-01-30T01:34:26.888Z,99585.00
2023-01-30T01:36:54.952Z,99576.00
2023-01-30T01:39:22.456Z,99580.00
2023-01-30T01:41:55.944Z,99542.00
2023-01-30T01:44:24.272Z,99564.00
2023-01-30T01:47:04.907Z,99550.00
2023-01-30T01:49:40.940Z,99566.00
2023-01-30T01:52:19.887Z,99581.00
2023-01-30T01:55:01.194Z,99560.00
2023-01-30T01:57:41.839Z,99541.00
2023-01-30T02:00:14.155Z,99568.00
2023-01-30T02:02:48.899Z,99554.00
2023-01-30T02:05:16.657Z,99551.00
2023-01-30T02:08:06.859Z,99561.00
2023-01-30T02:10:54.562Z,99563.00
2023-01-30T02:13:27.899Z,99553.00
2023-01-30T02:15:57.601Z,99548.00
2023-01-30T02:18:30.859Z,99526.00
2023-01-30T02:21:25.541Z,99533.00
2023-01-30T02:24:10.869Z,99544.00
2023-01-30T02:27:09.817Z,99545.00
2023-01-30T02:30:05.361Z,99551.00
2023-01-30T02:33:17.881Z,99555.00
2023-01-30T02:36:00.692Z,99550.00
2023-01-30T02:38:47.933Z,99527.00
2023-01-30T02:41:14.876Z,99544.00
2023-01-30T02:44:12.904Z,99544.00
2023-01-30T02:46:59.134Z,99543.00
2023-01-30T02:49:54.895Z,99533.00
2023-01-30T02:52:22.030Z,99530.00
2023-01-30T02:54:49.085Z,99534.00
2023-01-30T02:57:32.003Z,99530.00
2023-01-30T03:00:07.895Z,99506.00
2023-01-30T03:03:13.929Z,99517.00
2023-01-30T03:06:08.019Z,99514.00
2023-01-30T03:09:03.979Z,99501.00
2023-01-30T03:11:54.750Z,99494.00
2023-01-30T03:14:40.911Z,99472.00
2023-01-30T03:17:07.988Z,99452.00
2023-01-30T03:19:42.002Z,99462.00
2023-01-30T03:22:15.943Z,99466.00
2023-01-30T03:24:49.916Z,99476.00
2023-01-30T03:27:23.962Z,99454.00
2023-01-30T03:29:50.962Z,99431.00
2023-01-30T03:32:24.938Z,99463.00
2023-01-30T03:34:51.984Z,99461.00
2023-01-30T03:37:25.928Z,99458.00
2023-01-30T03:39:53.178Z,99437.00
2023-01-30T03:42:20.224Z,99423.00
2023-01-30T03:44:53.926Z,99422.00
2023-01-30T03:47:27.905Z,99431.00
2023-01-30T03:49:54.924Z,99436.00
2023-01-30T03:52:21.940Z,99437.00
2023-01-30T03:54:55.950Z,99447.00
2023-01-30T03:57:23.018Z,99442.00
2023-01-30T03:59:50.154Z,99432.00
2023-01-30T04:02:23.930Z,99416.00
2023-01-30T04:04:50.895Z,99410.00
2023-01-30T04:07:23.884Z,99425.00
2023-01-30T04:09:50.887Z,99412.00
2023-01-30T04:12:23.982Z,99421.00
2023-01-30T04:14:51.027Z,99391.00
2023-01-30T04:17:18.134Z,99403.00
2023-01-30T04:19:52.001Z,99405.00
2023-01-30T04:22:19.117Z,99407.00
2023-01-30T04:24:52.905Z,99416.00
2023-01-30T04:27:20.002Z,99391.00
2023-01-30T04:29:53.899Z,99394.00
2023-01-30T04:32:20.875Z,99384.00
2023-01-30T04:34:47.977Z,99399.00
2023-01-30T04:37:21.985Z,99401.00
2023-01-30T04:39:55.879Z,99398.00
2023-01-30T04:42:28.983Z,99385.00
2023-01-30T04:44:56.104Z,99403.00
2023-01-30T04:47:29.964Z,99404.00
2023-01-30T04:49:57.083Z,99356.00
2023-01-30T04:52:24.051Z,99385.00
2023-01-30T04:54:57.959Z,99400.00
2023-01-30T04:57:31.938Z,99382.00
2023-01-30T04:59:58.886Z,99397.00
2023-01-30T05:02:32.905Z,99400.00
2023-01-30T05:05:00.026Z,99416.00
2023-01-30T05:07:33.880Z,99396.00
2023-01-30T05:10:06.912Z,99408.00
2023-01-30T05:12:34.081Z,99384.00
2023-01-30T05:15:07.982Z,99403.00
2023-01-30T05:17:35.244Z,99388.00
2023-01-30T05:20:08.992Z,99382.00
2023-01-30T05:22:36.307Z,99365.00
2023-01-30T05:25:17.291Z,99390.00
2023-01-30T05:27:44.531Z,99370.00
2023-01-30T05:30:11.982Z,99398.00
2023-01-30T05:32:45.956Z,99393.00
2023-01-30T05:35:13.039Z,99402.00
2023-01-30T05:37:40.265Z,99369.00
2023-01-30T05:40:14.952Z,99376.00
2023-01-30T05:42:42.006Z,99391.00
2023-01-30T05:45:09.969Z,99374.00
2023-01-30T05:47:43.896Z,99417.00
2023-01-30T05:50:11.681Z,99438.00
2023-01-30T05:52:38.762Z,99421.00
2023-01-30T05:55:12.945Z,99402.00
2023-01-30T05:57:45.968Z,99413.00
2023-01-30T06:00:13.974Z,99421.00
2023-01-30T06:02:48.062Z,99441.00
2023-01-30T06:05:15.156Z,99432.00
2023-01-30T06:07:55.928Z,99416.00
2023-01-30T06:10:22.928Z,99415.00
2023-01-30T06:12:55.993Z,99424.00
2023-01-30T06:15:30.012Z,99404.00
2023-01-30T06:17:57.027Z,99396.00
2023-01-30T06:20:30.989Z,99423.00
2023-01-30T06:22:58.014Z,99416.00
2023-01-30T06:25:25.117Z,99421.00
2023-01-30T06:27:58.975Z,99404.00
2023-01-30T06:30:32.750Z,99406.00
2023-01-30T06:33:05.963Z,99412.00
2023-01-30T06:35:33.052Z,99418.00
2023-01-30T06:38:07.006Z,99412.00
2023-01-30T06:40:34.058Z,99383.00
2023-01-30T06:43:07.936Z,99419.00
2023-01-30T06:45:34.884Z,99408.00
2023-01-30T06:48:07.964Z,99403.00
2023-01-30T06:50:35.140Z,99394.00
2023-01-30T06:53:10.089Z,99419.00
2023-01-30T06:55:37.209Z,99420.00
2023-01-30T06:58:15.977Z,99422.00
2023-01-30T07:00:43.351Z,99444.00
2023-01-30T07:03:24.055Z,99437.00
2023-01-30T07:05:51.099Z,99432.00
2023-01-30T07:08:18.097Z,99388.00
2023-01-30T07:10:51.960Z,99411.00
2023-01-30T07:13:25.993Z,99409.00
2023-01-30T07:15:53.014Z,99432.00
2023-01-30T07:18:26.917Z,99430.00
2023-01-30T07:20:53.900Z,99429.00
2023-01-30T07:23:26.926Z,99438.00
2023-01-30T07:25:59.929Z,99405.00
2023-01-30T07:28:26.965Z,99394.00
2023-01-30T07:31:00.056Z,99410.00
2023-01-30T07:33:27.105Z,99387.00
2023-01-30T07:36:00.969Z,99411.00
2023-01-30T07:38:28.002Z,99391.00
2023-01-30T07:40:57.484Z,99397.00
2023-01-30T07:43:30.957Z,99367.00
2023-01-30T07:46:04.008Z,99376.00
2023-01-30T07:48:30.963Z,99397.00
2023-01-30T07:50:57.975Z,99368.00
2023-01-30T07:53:30.985Z,99407.00
2023-01-30T07:55:57.938Z,99393.00
2023-01-30T07:58:30.973Z,99398.00
2023-01-30T08:00:57.876Z,99386.00
2023-01-30T08:03:32.071Z,99374.00
2023-01-30T08:05:59.029Z,99367.00
2023-01-30T08:08:33.080Z,99404.00
2023-01-30T08:11:00.150Z,99391.00
2023-01-30T08:13:34.046Z,99400.00
2023-01-30T08:16:12.018Z,99398.00
2023-01-30T08:18:46.006Z,99401.00
2023-01-30T08:21:13.112Z,99388.00
2023-01-30T08:23:40.088Z,99392.00
2023-01-30T08:26:14.071Z,99350.00
2023-01-30T08:28:41.057Z,99386.00
2023-01-30T08:31:19.062Z,99374.00
2023-01-30T08:33:46.099Z,99356.00
2023-01-30T08:36:20.102Z,99351.00
2023-01-30T08:38:47.196Z,99370.00
2023-01-30T08:41:21.067Z,99352.00
2023-01-30T08:43:48.119Z,99364.00
2023-01-30T08:46:22.086Z,99365.00
2023-01-30T08:48:50.342Z,99359.00
2023-01-30T08:51:23.993Z,99356.00
2023-01-30T08:53:58.076Z,99364.00
2023-01-30T08:56:32.133Z,99356.00
2023-01-30T08:58:59.147Z,99347.00
2023-01-30T09:01:26.388Z,99310.00
2023-01-30T09:04:00.123Z,99293.00
2023-01-30T09:06:27.241Z,99315.00
2023-01-30T09:09:01.134Z,99331.00
2023-01-30T09:11:28.084Z,99322.00
2023-01-30T09:14:02.013Z,99330.00
2023-01-30T09:16:29.031Z,99328.00
2023-01-30T09:19:03.030Z,99318.00
2023-01-30T09:21:30.010Z,99349.00
2023-01-30T09:23:57.111Z,99365.00
2023-01-30T09:26:31.131Z,99346.00
2023-01-30T09:28:58.188Z,99385.00
2023-01-30T09:31:32.129Z,99378.00
2023-01-30T09:33:59.167Z,99368.00
2023-01-30T09:36:33.038Z,99368.00
2023-01-30T09:39:00.185Z,99329.00
2023-01-30T09:42:07.463Z,99341.00
2023-01-30T09:44:50.357Z,99336.00
2023-01-30T09:48:08.453Z,99336.00
2023-01-30T09:51:13.848Z,99289.00
2023-01-30T09:54:28.455Z,99317.00
2023-01-30T09:57:28.135Z,99272.00
2023-01-30T10:00:06.523Z,99291.00
2023-01-30T10:02:55.053Z,99296.00
2023-01-30T10:05:22.322Z,99261.00
2023-01-30T10:08:24.155Z,99285.00
2023-01-30T10:11:10.299Z,99261.00
2023-01-30T10:14:53.052Z,99285.00
2023-01-30T10:18:10.116Z,99274.00
2023-01-30T10:20:50.221Z,99276.00
2023-01-30T10:24:14.165Z,99290.00
2023-01-30T10:26:41.634Z,99263.00
2023-01-30T10:29:31.059Z,99261.00
2023-01-30T10:32:27.166Z,99270.00
2023-01-30T10:34:56.864Z,99237.00
2023-01-30T10:37:46.138Z,99265.00
2023-01-30T10:40:39.601Z,99232.00
2023-01-30T10:43:29.085Z,99227.00
2023-01-30T10:46:25.369Z,99231.00
2023-01-30T10:49:12.058Z,99231.00
2023-01-30T10:51:51.028Z,99225.00
2023-01-30T10:55:07.131Z,99222.00
2023-01-30T10:57:53.187Z,99214.00
2023-01-30T11:00:55.139Z,99203.00
2023-01-30T11:03:48.498Z,99202.00
2023-01-30T11:06:29.080Z,99178.00
2023-01-30T11:08:56.335Z,99163.00
2023-01-30T11:11:58.101Z,99176.00
2023-01-30T11:14:32.043Z,99172.00
2023-01-30T11:16:59.043Z,99160.00
2023-01-30T11:19:42.183Z,99163.00
2023-01-30T11:22:14.380Z,99146.00
2023-01-30T11:24:52.070Z,99147.00
2023-01-30T11:27:35.122Z,99125.00
2023-01-30T11:30:11.002Z,99143.00
2023-01-30T11:32:44.166Z,99115.00
2023-01-30T11:35:13.981Z,99139.00
2023-01-30T11:37:50.160Z,99132.00
2023-01-30T11:40:33.157Z,99126.00
2023-01-30T11:43:05.205Z,99088.00
2023-01-30T11:45:51.103Z,99109.00
2023-01-30T11:48:33.496Z,99085.00
2023-01-30T11:51:17.417Z,99083.00
2023-01-30T11:53:54.166Z,99098.00
2023-01-30T11:56:30.117Z,99097.00
2023-01-30T11:59:06.138Z,99072.00
2023-01-30T12:01:42.198Z,99069.00
2023-01-30T12:04:11.188Z,99090.00
2023-01-30T12:06:47.153Z,99047.00
2023-01-30T12:09:32.792Z,99080.00
2023-01-30T12:12:06.174Z,99059.00
2023-01-30T12:14:44.962Z,99061.00
2023-01-30T12:17:26.084Z,99054.00
2023-01-30T12:20:22.529Z,99080.00
2023-01-30T12:23:30.099Z,99072.00
2023-01-30T12:26:21.190Z,99090.00
2023-01-30T12:28:55.124Z,99084.00
2023-01-30T12:31:32.571Z,99082.00
2023-01-30T12:34:06.204Z,99051.00
2023-01-30T12:36:56.854Z,99028.00
2023-01-30T12:40:08.133Z,99035.00
2023-01-30T12:43:04.732Z,99020.00
2023-01-30T12:45:45.232Z,99006.00
2023-01-30T12:48:21.063Z,99007.00
2023-01-30T12:51:02.177Z,99019.00
2023-01-30T12:54:35.118Z,99014.00
2023-01-30T12:57:31.995Z,99010.00
2023-01-30T13:00:37.117Z,99007.00
2023-01-30T13:03:44.885Z,98998.00
2023-01-30T13:07:00.172Z,98994.00
2023-01-30T13:10:07.216Z,98972.00
2023-01-30T13:13:12.172Z,98982.00
2023-01-30T13:15:58.186Z,98965.00
2023-01-30T13:18:52.484Z,98956.00
2023-01-30T13:21:38.259Z,98959.00
2023-01-30T13:24:08.211Z,98955.00
2023-01-30T13:26:43.177Z,98941.00
2023-01-30T13:29:37.180Z,98948.00
2023-01-30T13:32:21.207Z,98948.00
2023-01-30T13:34:48.280Z,98922.00
2023-01-30T13:37:19.661Z,98934.00
2023-01-30T13:39:59.157Z,98921.00
2023-01-30T13:42:53.390Z,98900.00
2023-01-30T13:45:33.167Z,98907.00
2023-01-30T13:48:43.153Z,98916.00
2023-01-30T13:51:35.251Z,98911.00
2023-01-30T13:54:31.153Z,98925.00
2023-01-30T13:57:38.212Z,98929.00
2023-01-30T14:00:30.242Z,98920.00
2023-01-30T14:03:06.408Z,98928.00
2023-01-30T14:05:58.182Z,98910.00
2023-01-30T14:08:29.259Z,98921.00
2023-01-30T14:11:03.247Z,98925.00
2023-01-30T14:13:32.080Z,98911.00
2023-01-30T14:16:11.227Z,98911.00
2023-01-30T14:18:38.355Z,98886.00
2023-01-30T14:21:28.221Z,98887.00
2023-01-30T14:23:58.832Z,98914.00
2023-01-30T14:26:54.302Z,98913.00
2023-01-30T14:29:46.135Z,98896.00
2023-01-30T14:32:19.319Z,98893.00
2023-01-30T14:34:56.213Z,98887.00
2023-01-30T14:37:42.171Z,98909.00
2023-01-30T14:40:31.646Z,98889.00
2023-01-30T14:43:20.207Z,98898.00
2023-01-30T14:45:57.256Z,98879.00
2023-01-30T14:48:54.313Z,98894.00
2023-01-30T14:51:22.714Z,98904.00
2023-01-30T14:54:23.463Z,98911.00
2023-01-30T14:57:16.063Z,98919.00
2023-01-30T15:00:12.140Z,98909.00
2023-01-30T15:02:54.170Z,98890.00
2023-01-30T15:05:41.157Z,98898.00
2023-01-30T15:08:20.887Z,98878.00
2023-01-30T15:11:23.241Z,98909.00
2023-01-30T15:14:06.948Z,98917.00
2023-01-30T15:17:00.201Z,98887.00
2023-01-30T15:19:47.955Z,98907.00
2023-01-30T15:23:18.187Z,98897.00
2023-01-30T15:26:10.260Z,98899.00
2023-01-30T15:29:02.252Z,98902.00
2023-01-30T15:31:29.296Z,98892.00
2023-01-30T15:33:56.318Z,98889.00
2023-01-30T15:36:41.205Z,98862.00
2023-01-30T15:39:31.258Z,98874.00
2023-01-30T15:42:13.244Z,98889.00
2023-01-30T15:45:00.242Z,98864.00
2023-01-30T15:48:05.383Z,98895.00
2023-01-30T15:50:39.273Z,98908.00
2023-01-30T15:53:12.793Z,98903.00
2023-01-30T15:55:48.161Z,98895.00
2023-01-30T15:58:25.226Z,98890.00
2023-01-30T16:01:08.332Z,98876.00
2023-01-30T16:03:40.427Z,98888.00
2023-01-30T16:06:14.230Z,98898.00
2023-01-30T16:08:41.300Z,98886.00
2023-01-30T16:11:16.229Z,98888.00
2023-01-30T16:13:43.250Z,98907.00
2023-01-30T16:16:23.271Z,98922.00
2023-01-30T16:18:52.283Z,98930.00
2023-01-30T16:21:29.246Z,98927.00
2023-01-30T16:24:04.185Z,98918.00
2023-01-30T16:26:39.261Z,98899.00
2023-01-30T16:29:15.280Z,98873.00
2023-01-30T16:31:42.414Z,98899.00
2023-01-30T16:34:40.251Z,98918.00
2023-01-30T16:37:25.398Z,98900.00
2023-01-30T16:40:27.295Z,98923.00
2023-01-30T16:42:56.951Z,98881.00
2023-01-30T16:45:42.317Z,98906.00
2023-01-30T16:48:18.274Z,98911.00
2023-01-30T16:50:52.259Z,98912.00
2023-01-30T16:53:19.877Z,98911.00
2023-01-30T16:56:07.279Z,98884.00
2023-01-30T16:58:41.231Z,98920.00
2023-01-30T17:01:15.378Z,98910.00
2023-01-30T17:03:43.240Z,98922.00
2023-01-30T17:06:41.333Z,98899.00
2023-01-30T17:09:44.578Z,98911.00
2023-01-30T17:12:41.330Z,98891.00
2023-01-30T17:15:18.561Z,98911.00
2023-01-30T17:17:45.926Z,98903.00
2023-01-30T17:20:21.228Z,98912.00
2023-01-30T17:22:56.285Z,98919.00
2023-01-30T17:25:43.049Z,98928.00
2023-01-30T17:28:23.252Z,98928.00
2023-01-30T17:30:50.384Z,98898.00
2023-01-30T17:33:17.668Z,98866.00
2023-01-30T17:35:52.272Z,98895.00
2023-01-30T17:38:19.322Z,98899.00
2023-01-30T17:40:53.304Z,98876.00
2023-01-30T17:43:20.282Z,98879.00
2023-01-30T17:45:56.678Z,98871.00
2023-01-30T17:48:23.768Z,98882.00
2023-01-30T17:50:57.313Z,98884.00
2023-01-30T17:53:24.269Z,98912.00
2023-01-30T17:55:51.364Z,98908.00
2023-01-30T17:58:25.285Z,98891.00
2023-01-30T18:00:52.315Z,98893.00
2023-01-30T18:03:26.281Z,98897.00
2023-01-30T18:06:00.386Z,98926.00
2023-01-30T18:08:27.389Z,98918.00
2023-01-30T18:11:01.311Z,98883.00
2023-01-30T18:13:28.393Z,98898.00
2023-01-30T18:15:57.664Z,98897.00
2023-01-30T18:18:31.302Z,98890.00
2023-01-30T18:20:58.509Z,98908.00
2023-01-30T18:23:38.856Z,98871.00
2023-01-30T18:26:06.193Z,98918.00
2023-01-30T18:28:39.451Z,98912.00
2023-01-30T18:31:08.688Z,98902.00
2023-01-30T18:33:42.417Z,98858.00
2023-01-30T18:36:12.564Z,98901.00
2023-01-30T18:38:46.346Z,98887.00
2023-01-30T18:41:18.413Z,98863.00
2023-01-30T18:43:52.336Z,98879.00
2023-01-30T18:46:19.527Z,98870.00
2023-01-30T18:48:53.384Z,98882.00
2023-01-30T18:51:26.384Z,98880.00
2023-01-30T18:54:00.484Z,98867.00
2023-01-30T18:56:32.110Z,98862.00
2023-01-30T18:59:07.329Z,98882.00
2023-01-30T19:01:39.470Z,98871.00
2023-01-30T19:04:15.378Z,98901.00
2023-01-30T19:06:50.396Z,98889.00
2023-01-30T19:09:17.657Z,98878.00
2023-01-30T19:11:52.418Z,98861.00
2023-01-30T19:14:19.619Z,98902.00
2023-01-30T19:16:46.806Z,98873.00
2023-01-30T19:19:20.356Z,98870.00
2023-01-30T19:21:47.391Z,98847.00
2023-01-30T19:24:16.084Z,98920.00
2023-01-30T19:26:49.564Z,98886.00
2023-01-30T19:29:17.238Z,98921.00
2023-01-30T19:31:44.460Z,98921.00
2023-01-30T19:34:18.369Z,98869.00
2023-01-30T19:36:52.397Z,98925.00
2023-01-30T19:39:19.513Z,98899.00
2023-01-30T19:41:53.525Z,98919.00
2023-01-30T19:44:27.367Z,98890.00
2023-01-30T19:46:54.580Z,98898.00
2023-01-30T19:49:28.363Z,98919.00
2023-01-30T19:51:55.543Z,98877.00
2023-01-30T19:54:29.457Z,98945.00
2023-01-30T19:56:56.677Z,98902.00
2023-01-30T19:59:33.480Z,98891.00
2023-01-30T20:02:00.741Z,98897.00
2023-01-30T20:04:34.416Z,98916.00
2023-01-30T20:07:01.661Z,98908.00
2023-01-30T20:09:35.416Z,98935.00
2023-01-30T20:12:02.553Z,98939.00
2023-01-30T20:14:36.399Z,98935.00
2023-01-30T20:17:03.581Z,98883.00
2023-01-30T20:19:37.392Z,98904.00
2023-01-30T20:22:11.348Z,98926.00
2023-01-30T20:24:38.503Z,98943.00
2023-01-30T20:27:12.344Z,98943.00
2023-01-30T20:29:39.342Z,98926.00
2023-01-30T20:32:13.411Z,98935.00
2023-01-30T20:34:40.499Z,98904.00
2023-01-30T20:37:07.635Z,98967.00
2023-01-30T20:39:41.573Z,98907.00
2023-01-30T20:42:08.716Z,98923.00
2023-01-30T20:44:42.419Z,98937.00
2023-01-30T20:47:09.634Z,98942.00
2023-01-30T20:49:43.426Z,98912.00
2023-01-30T20:52:17.441Z,98956.00
2023-01-30T20:54:51.447Z,98935.00
2023-01-30T20:57:18.862Z,98924.00
2023-01-30T20:59:52.427Z,98929.00
2023-01-30T21:02:19.612Z,98963.00
2023-01-30T21:04:53.436Z,98943.00
2023-01-30T21:07:20.528Z,98952.00
2023-01-30T21:09:54.485Z,98956.00
2023-01-30T21:12:21.645Z,98948.00
2023-01-30T21:14:55.435Z,98955.00
2023-01-30T21:17:22.758Z,98942.00
2023-01-30T21:19:56.377Z,98954.00
2023-01-30T21:22:23.743Z,98973.00
2023-01-30T21:24:57.548Z,98997.00
2023-01-30T21:27:24.614Z,98961.00
2023-01-30T21:29:58.925Z,99015.00
2023-01-30T21:32:26.319Z,99018.00
2023-01-30T21:35:01.403Z,99001.00
2023-01-30T21:37:28.667Z,98969.00
2023-01-30T21:39:55.859Z,98948.00
2023-01-30T21:42:29.510Z,99000.00
2023-01-30T21:44:57.214Z,99014.00
2023-01-30T21:47:30.472Z,99011.00
2023-01-30T21:49:57.773Z,98991.00
2023-01-30T21:52:24.953Z,99043.00
2023-01-30T21:54:58.467Z,99000.00
2023-01-30T21:57:25.819Z,98984.00
2023-01-30T21:59:59.450Z,98998.00
2023-01-30T22:02:26.569Z,98997.00
2023-01-30T22:05:00.497Z,99055.00
2023-01-30T22:07:34.550Z,99035.00
2023-01-30T22:10:01.815Z,99055.00
2023-01-30T22:12:35.541Z,99056.00
2023-01-30T22:15:02.876Z,99065.00
2023-01-30T22:17:36.499Z,99037.00
2023-01-30T22:20:03.905Z,99029.00
2023-01-30T22:22:38.692Z,99058.00
2023-01-30T22:25:06.447Z,99050.00
2023-01-30T22:27:40.622Z,99037.00
2023-01-30T22:30:09.907Z,99074.00
2023-01-30T22:32:44.755Z,99103.00
2023-01-30T22:35:12.252Z,99064.00
2023-01-30T22:37:45.342Z,99059.00
2023-01-30T22:40:14.129Z,99051.00
2023-01-30T22:42:54.854Z,99083.00
2023-01-30T22:45:22.051Z,99109.00
2023-01-30T22:47:56.965Z,99076.00
2023-01-30T22:50:24.146Z,99116.00
2023-01-30T22:52:57.467Z,99112.00
2023-01-30T22:55:24.515Z,99114.00
2023-01-30T22:57:51.569Z,99110.00
2023-01-30T23:00:25.365Z,99105.00
2023-01-30T23:02:52.309Z,99122.00
2023-01-30T23:05:25.409Z,99121.00
2023-01-30T23:07:52.624Z,99104.00
2023-01-30T23:10:26.418Z,99107.00
2023-01-30T23:12:53.409Z,99146.00
2023-01-30T23:15:27.532Z,99147.00
2023-01-30T23:17:54.741Z,99124.00
2023-01-30T23:20:21.822Z,99132.00
2023-01-30T23:22:58.470Z,99151.00
2023-01-30T23:25:32.501Z,99147.00
2023-01-30T23:27:59.604Z,99165.00
2023-01-30T23:30:33.477Z,99132.00
2023-01-30T23:33:00.552Z,99124.00
2023-01-30T23:35:27.592Z,99163.00
2023-01-30T23:38:01.447Z,99147.00
2023-01-30T23:40:28.452Z,99152.00
2023-01-30T23:43:02.477Z,99159.00
2023-01-30T23:45:29.577Z,99157.00
2023-01-30T23:48:03.469Z,99164.00
2023-01-30T23:50:30.663Z,99155.00
2023-01-30T23:53:04.411Z,99147.00
2023-01-30T23:55:32.597Z,99171.00
2023-01-30T23:58:00.476Z,99186.00
